Time,TemperatureF,DewpointF,PressureIn,WindDirection,WindDirectionDegrees,WindSpeedMPH,WindSpeedGustMPH,Humidity,HourlyPrecipIn,Conditions,Clouds,dailyrainin,SoftwareType,DateUTC
2013-12-07 00:04:00,51.9,47.2,30.07,ENE,67,0.0,0.0,84,0.00,,,0.00,Wunderground v.1.15,2013-12-06 13:04:00,
2013-12-07 00:10:00,51.8,47.1,30.07,North,-999,0.0,0.0,84,0.00,,,-99.99,WeatherLink 5.9.3,2013-12-06 13:10:00,
2013-12-07 00:16:00,52.1,47.1,30.07,NE,37,0.0,0.0,83,0.00,,,0.00,Wunderground v.1.15,2013-12-06 13:16:00,
2013-12-07 00:21:00,52.1,47.1,30.07,NE,35,0.0,0.0,83,0.00,,,0.00,Wunderground v.1.15,2013-12-06 13:21:00,
2013-12-07 00:27:00,52.0,47.0,30.07,NE,35,0.0,0.0,83,0.00,,,0.00,Wunderground v.1.15,2013-12-06 13:27:00,
2013-12-07 00:32:00,52.0,47.0,30.07,NE,38,0.0,0.0,83,0.00,,,0.00,Wunderground v.1.15,2013-12-06 13:32:00,
2013-12-07 00:37:00,51.9,46.9,30.07,NE,38,0.0,0.0,83,0.00,,,0.00,Wunderground v.1.15,2013-12-06 13:37:00,
2013-12-07 00:43:00,51.8,47.1,30.07,NE,38,0.0,0.0,84,0.00,,,0.00,Wunderground v.1.15,2013-12-06 13:43:00,
2013-12-07 00:48:00,51.7,47.0,30.07,NE,39,0.0,0.0,84,0.00,,,0.00,Wunderground v.1.15,2013-12-06 13:48:00,
2013-12-07 00:54:00,51.6,46.9,30.07,NE,38,0.0,0.0,84,0.00,,,0.00,Wunderground v.1.15,2013-12-06 13:54:00,
2013-12-07 00:59:00,51.3,46.6,30.07,NE,38,0.0,0.0,84,0.00,,,0.00,Wunderground v.1.15,2013-12-06 13:59:00,
2013-12-07 01:05:00,51.3,46.9,30.06,NE,38,0.0,0.0,85,0.00,,,0.00,Wunderground v.1.15,2013-12-06 14:05:00,
2013-12-07 01:10:00,51.3,46.9,30.07,NE,45,0.0,1.0,85,0.00,,,-99.99,WeatherLink 5.9.3,2013-12-06 14:10:00,
2013-12-07 01:16:00,51.3,46.9,30.06,ENE,77,0.0,0.0,85,0.00,,,0.00,Wunderground v.1.15,2013-12-06 14:16:00,
2013-12-07 01:21:00,51.3,46.9,30.07,ENE,77,0.0,0.0,85,0.00,,,0.00,Wunderground v.1.15,2013-12-06 14:21:00,
2013-12-07 01:26:00,51.2,46.8,30.07,ENE,77,0.0,0.0,85,0.00,,,0.00,Wunderground v.1.15,2013-12-06 14:26:00,
2013-12-07 01:32:00,51.2,47.2,30.07,ENE,77,0.0,0.0,86,0.00,,,0.00,Wunderground v.1.15,2013-12-06 14:32:00,
2013-12-07 01:37:00,51.1,46.7,30.07,ENE,77,0.0,0.0,85,0.00,,,0.00,Wunderground v.1.15,2013-12-06 14:37:00,
2013-12-07 01:42:00,51.0,47.0,30.07,ENE,77,0.0,0.0,86,0.00,,,0.00,Wunderground v.1.15,2013-12-06 14:42:00,
2013-12-07 01:48:00,50.9,46.9,30.08,ENE,77,0.0,0.0,86,0.00,,,0.00,Wunderground v.1.15,2013-12-06 14:48:00,
2013-12-07 01:53:00,50.8,46.8,30.08,ENE,77,0.0,1.0,86,0.00,,,0.00,Wunderground v.1.15,2013-12-06 14:53:00,
2013-12-07 01:59:00,50.8,46.8,30.07,ENE,77,0.0,1.0,86,0.00,,,0.00,Wunderground v.1.15,2013-12-06 14:59:00,
2013-12-07 02:04:00,50.7,46.7,30.08,ENE,77,0.0,0.0,86,0.00,,,0.00,Wunderground v.1.15,2013-12-06 15:04:00,
2013-12-07 02:09:00,50.6,46.6,30.07,ENE,77,0.0,0.0,86,0.00,,,0.00,Wunderground v.1.15,2013-12-06 15:09:00,
2013-12-07 02:15:00,50.6,46.9,30.07,ENE,77,0.0,0.0,87,0.00,,,0.00,Wunderground v.1.15,2013-12-06 15:15:00,
2013-12-07 02:20:00,50.6,46.6,30.07,North,-999,0.0,0.0,86,0.00,,,-99.99,WeatherLink 5.9.3,2013-12-06 15:20:00,
2013-12-07 02:26:00,50.6,46.9,30.07,ENE,77,0.0,0.0,87,0.00,,,0.00,Wunderground v.1.15,2013-12-06 15:26:00,
2013-12-07 02:31:00,50.4,46.7,30.07,ENE,77,0.0,0.0,87,0.00,,,0.00,Wunderground v.1.15,2013-12-06 15:31:00,
2013-12-07 02:36:00,50.3,46.6,30.07,ENE,77,0.0,0.0,87,0.00,,,0.00,Wunderground v.1.15,2013-12-06 15:36:00,
2013-12-07 02:42:00,50.3,46.6,30.08,East,79,0.0,0.0,87,0.00,,,0.00,Wunderground v.1.15,2013-12-06 15:42:00,
2013-12-07 02:47:00,50.1,46.4,30.08,East,80,0.0,0.0,87,0.00,,,0.00,Wunderground v.1.15,2013-12-06 15:47:00,
2013-12-07 02:53:00,50.0,46.6,30.08,East,79,0.0,0.0,88,0.00,,,0.00,Wunderground v.1.15,2013-12-06 15:53:00,
2013-12-07 02:58:00,49.9,46.5,30.08,East,79,0.0,0.0,88,0.00,,,0.00,Wunderground v.1.15,2013-12-06 15:58:00,
2013-12-07 03:03:00,49.9,46.8,30.08,East,80,0.0,0.0,89,0.00,,,0.00,Wunderground v.1.15,2013-12-06 16:03:00,
2013-12-07 03:08:00,50.1,47.0,30.08,East,80,0.0,0.0,89,0.00,,,0.00,Wunderground v.1.15,2013-12-06 16:08:00,
2013-12-07 03:14:00,50.0,46.6,30.07,East,80,0.0,0.0,88,0.00,,,0.00,Wunderground v.1.15,2013-12-06 16:14:00,
2013-12-07 03:19:00,49.9,46.5,30.07,East,80,0.0,0.0,88,0.00,,,0.00,Wunderground v.1.15,2013-12-06 16:19:00,
2013-12-07 03:25:00,50.0,46.9,30.07,East,79,0.0,0.0,89,0.00,,,0.00,Wunderground v.1.15,2013-12-06 16:25:00,
2013-12-07 03:30:00,49.9,46.5,30.07,North,-999,0.0,0.0,88,0.00,,,-99.99,WeatherLink 5.9.3,2013-12-06 16:30:00,
2013-12-07 03:36:00,49.9,46.5,30.07,East,80,0.0,0.0,88,0.00,,,0.00,Wunderground v.1.15,2013-12-06 16:36:00,
2013-12-07 03:41:00,50.0,46.6,30.07,East,79,0.0,0.0,88,0.00,,,0.00,Wunderground v.1.15,2013-12-06 16:41:00,
2013-12-07 03:47:00,50.0,46.9,30.07,East,80,0.0,0.0,89,0.00,,,0.00,Wunderground v.1.15,2013-12-06 16:47:00,
2013-12-07 03:52:00,50.1,46.7,30.08,East,79,0.0,0.0,88,0.00,,,0.00,Wunderground v.1.15,2013-12-06 16:52:00,
2013-12-07 03:58:00,50.1,47.0,30.08,East,80,0.0,0.0,89,0.00,,,0.00,Wunderground v.1.15,2013-12-06 16:58:00,
2013-12-07 04:03:00,50.1,47.0,30.08,East,79,0.0,0.0,89,0.00,,,0.00,Wunderground v.1.15,2013-12-06 17:03:00,
2013-12-07 04:08:00,50.0,46.6,30.07,East,80,0.0,0.0,88,0.00,,,0.00,Wunderground v.1.15,2013-12-06 17:08:00,
2013-12-07 04:14:00,49.7,46.3,30.08,East,80,0.0,0.0,88,0.00,,,0.00,Wunderground v.1.15,2013-12-06 17:14:00,
2013-12-07 04:19:00,49.5,46.4,30.08,East,80,0.0,0.0,89,0.00,,,0.00,Wunderground v.1.15,2013-12-06 17:19:00,
2013-12-07 04:25:00,49.6,46.5,30.08,East,80,0.0,0.0,89,0.00,,,0.00,Wunderground v.1.15,2013-12-06 17:25:00,
2013-12-07 04:30:00,49.6,46.5,30.08,North,-999,0.0,0.0,89,0.00,,,-99.99,WeatherLink 5.9.3,2013-12-06 17:30:00,
2013-12-07 04:36:00,49.3,46.2,30.08,East,79,0.0,0.0,89,0.00,,,0.00,Wunderground v.1.15,2013-12-06 17:36:00,
2013-12-07 04:41:00,49.2,46.1,30.08,East,80,0.0,0.0,89,0.00,,,0.00,Wunderground v.1.15,2013-12-06 17:41:00,
2013-12-07 04:46:00,49.1,46.0,30.08,East,80,0.0,0.0,89,0.00,,,0.00,Wunderground v.1.15,2013-12-06 17:46:00,
2013-12-07 04:52:00,48.9,45.8,30.08,East,80,0.0,0.0,89,0.00,,,0.00,Wunderground v.1.15,2013-12-06 17:52:00,
2013-12-07 04:57:00,48.8,46.0,30.08,East,79,0.0,0.0,90,0.00,,,0.00,Wunderground v.1.15,2013-12-06 17:57:00,
2013-12-07 05:02:00,48.7,45.9,30.09,East,79,0.0,0.0,90,0.00,,,0.00,Wunderground v.1.15,2013-12-06 18:02:00,
2013-12-07 05:08:00,48.7,46.2,30.09,East,80,0.0,0.0,91,0.00,,,0.00,Wunderground v.1.15,2013-12-06 18:08:00,
2013-12-07 05:13:00,48.6,46.1,30.09,East,80,0.0,0.0,91,0.00,,,0.00,Wunderground v.1.15,2013-12-06 18:13:00,
2013-12-07 05:18:00,48.5,46.0,30.09,East,80,0.0,0.0,91,0.00,,,0.00,Wunderground v.1.15,2013-12-06 18:18:00,
2013-12-07 05:24:00,48.3,45.8,30.09,East,80,0.0,0.0,91,0.00,,,0.00,Wunderground v.1.15,2013-12-06 18:24:00,
2013-12-07 05:29:00,48.1,45.6,30.10,East,79,0.0,0.0,91,0.00,,,0.00,Wunderground v.1.15,2013-12-06 18:29:00,
2013-12-07 05:35:00,48.0,45.5,30.10,East,80,0.0,0.0,91,0.00,,,0.00,Wunderground v.1.15,2013-12-06 18:35:00,
2013-12-07 05:40:00,48.1,45.6,30.10,North,-999,0.0,0.0,91,0.00,,,-99.99,WeatherLink 5.9.3,2013-12-06 18:40:00,
2013-12-07 05:46:00,47.7,45.5,30.10,East,80,0.0,0.0,92,0.00,,,0.00,Wunderground v.1.15,2013-12-06 18:46:00,
2013-12-07 05:51:00,47.6,45.4,30.10,East,79,0.0,0.0,92,0.00,,,0.00,Wunderground v.1.15,2013-12-06 18:51:00,
2013-12-07 05:57:00,47.4,45.2,30.10,East,79,0.0,0.0,92,0.00,,,0.00,Wunderground v.1.15,2013-12-06 18:57:00,
2013-12-07 06:02:00,47.3,45.1,30.11,East,80,0.0,0.0,92,0.00,,,0.00,Wunderground v.1.15,2013-12-06 19:02:00,
2013-12-07 06:08:00,47.4,45.5,30.11,East,79,0.0,0.0,93,0.00,,,0.00,Wunderground v.1.15,2013-12-06 19:08:00,
2013-12-07 06:13:00,47.7,45.8,30.11,East,80,0.0,0.0,93,0.00,,,0.00,Wunderground v.1.15,2013-12-06 19:13:00,
2013-12-07 06:19:00,48.6,47.2,30.11,East,80,0.0,0.0,95,0.00,,,0.00,Wunderground v.1.15,2013-12-06 19:19:00,
2013-12-07 06:24:00,50.2,49.1,30.11,East,79,0.0,0.0,96,0.00,,,0.00,Wunderground v.1.15,2013-12-06 19:24:00,
2013-12-07 06:29:00,51.2,49.5,30.11,East,79,0.0,0.0,94,0.00,,,0.00,Wunderground v.1.15,2013-12-06 19:29:00,
2013-12-07 06:35:00,52.8,50.5,30.11,East,79,0.0,0.0,92,0.00,,,0.00,Wunderground v.1.15,2013-12-06 19:35:00,
2013-12-07 06:40:00,51.8,50.1,30.11,North,-999,0.0,0.0,94,0.00,,,-99.99,WeatherLink 5.9.3,2013-12-06 19:40:00,
2013-12-07 06:46:00,57.1,51.7,30.11,East,80,0.0,0.0,82,0.00,,,0.00,Wunderground v.1.15,2013-12-06 19:46:00,
2013-12-07 06:51:00,58.6,51.1,30.11,East,79,0.0,0.0,76,0.00,,,0.00,Wunderground v.1.15,2013-12-06 19:51:00,
2013-12-07 06:56:00,59.3,51.4,30.11,East,79,0.0,0.0,75,0.00,,,0.00,Wunderground v.1.15,2013-12-06 19:56:00,
2013-12-07 07:01:00,59.9,51.2,30.12,East,80,0.0,0.0,73,0.00,,,0.00,Wunderground v.1.15,2013-12-06 20:01:00,
2013-12-07 07:07:00,60.9,51.0,30.12,ENE,71,0.0,0.0,70,0.00,,,0.00,Wunderground v.1.15,2013-12-06 20:07:00,
2013-12-07 07:13:00,61.3,51.4,30.12,ENE,72,0.0,0.0,70,0.00,,,0.00,Wunderground v.1.15,2013-12-06 20:13:00,
2013-12-07 07:18:00,61.9,50.8,30.12,ENE,73,0.0,0.0,67,0.00,,,0.00,Wunderground v.1.15,2013-12-06 20:18:00,
2013-12-07 07:24:00,62.7,51.6,30.12,ENE,73,0.0,0.0,67,0.00,,,0.00,Wunderground v.1.15,2013-12-06 20:24:00,
2013-12-07 07:29:00,64.0,52.4,30.12,ENE,73,0.0,0.0,66,0.00,,,0.00,Wunderground v.1.15,2013-12-06 20:29:00,
2013-12-07 07:34:00,63.9,51.5,30.12,ENE,59,0.0,1.0,64,0.00,,,0.00,Wunderground v.1.15,2013-12-06 20:34:00,
2013-12-07 07:40:00,64.4,52.0,30.12,ENE,67,0.0,1.0,64,0.00,,,-99.99,WeatherLink 5.9.3,2013-12-06 20:40:00,
2013-12-07 07:46:00,63.6,52.4,30.13,ENE,70,0.0,1.0,67,0.00,,,0.00,Wunderground v.1.15,2013-12-06 20:46:00,
2013-12-07 07:51:00,63.5,52.7,30.13,NE,48,0.0,1.0,68,0.00,,,0.00,Wunderground v.1.15,2013-12-06 20:51:00,
2013-12-07 07:56:00,64.6,54.2,30.13,NE,41,0.0,2.0,69,0.00,,,0.00,Wunderground v.1.15,2013-12-06 20:56:00,
2013-12-07 08:02:00,65.6,54.8,30.13,NE,42,0.0,0.0,68,0.00,,,0.00,Wunderground v.1.15,2013-12-06 21:02:00,
2013-12-07 08:07:00,66.3,53.8,30.13,NNE,18,0.0,2.0,64,0.00,,,0.00,Wunderground v.1.15,2013-12-06 21:07:00,
2013-12-07 08:12:00,66.3,55.4,30.13,NE,34,1.0,1.0,68,0.00,,,0.00,Wunderground v.1.15,2013-12-06 21:12:00,
2013-12-07 08:18:00,67.1,54.5,30.13,North,3,0.0,1.0,64,0.00,,,0.00,Wunderground v.1.15,2013-12-06 21:18:00,
2013-12-07 08:23:00,68.1,55.9,30.14,North,359,0.0,1.0,65,0.00,,,0.00,Wunderground v.1.15,2013-12-06 21:23:00,
2013-12-07 08:28:00,67.8,55.2,30.13,North,357,1.0,2.0,64,0.00,,,0.00,Wunderground v.1.15,2013-12-06 21:28:00,
2013-12-07 08:34:00,68.3,55.6,30.14,NE,46,1.0,1.0,64,0.00,,,0.00,Wunderground v.1.15,2013-12-06 21:34:00,
2013-12-07 08:39:00,69.2,56.1,30.14,North,359,1.0,1.0,63,0.00,,,0.00,Wunderground v.1.15,2013-12-06 21:39:00,
2013-12-07 08:45:00,70.5,55.5,30.14,NE,41,1.0,1.0,59,0.00,,,0.00,Wunderground v.1.15,2013-12-06 21:45:00,
2013-12-07 08:50:00,69.7,56.1,30.14,North,0,0.0,1.0,62,0.00,,,-99.99,WeatherLink 5.9.3,2013-12-06 21:50:00,
2013-12-07 08:56:00,70.9,56.8,30.14,SE,133,1.0,2.0,61,0.00,,,0.00,Wunderground v.1.15,2013-12-06 21:56:00,
2013-12-07 09:01:00,70.7,56.6,30.14,West,280,1.0,3.0,61,0.00,,,0.00,Wunderground v.1.15,2013-12-06 22:01:00,
2013-12-07 09:06:00,71.5,56.4,30.14,East,87,1.0,3.0,59,0.00,,,0.00,Wunderground v.1.15,2013-12-06 22:06:00,
2013-12-07 09:12:00,71.3,55.8,30.14,SSW,199,1.0,2.0,58,0.00,,,0.00,Wunderground v.1.15,2013-12-06 22:12:00,
2013-12-07 09:17:00,71.3,54.8,30.14,SSE,166,1.0,2.0,56,0.00,,,0.00,Wunderground v.1.15,2013-12-06 22:17:00,
2013-12-07 09:23:00,71.1,55.1,30.14,East,89,1.0,1.0,57,0.00,,,0.00,Wunderground v.1.15,2013-12-06 22:23:00,
2013-12-07 09:28:00,71.1,55.1,30.14,ENE,63,1.0,2.0,57,0.00,,,0.00,Wunderground v.1.15,2013-12-06 22:28:00,
2013-12-07 09:33:00,70.9,55.4,30.14,ESE,122,1.0,2.0,58,0.00,,,0.00,Wunderground v.1.15,2013-12-06 22:33:00,
2013-12-07 09:39:00,71.0,54.5,30.14,NE,45,2.0,4.0,56,0.00,,,0.00,Wunderground v.1.15,2013-12-06 22:39:00,
2013-12-07 09:44:00,71.0,55.0,30.14,ESE,103,1.0,2.0,57,0.00,,,0.00,Wunderground v.1.15,2013-12-06 22:44:00,
2013-12-07 09:50:00,70.8,54.3,30.14,NE,45,1.0,4.0,56,0.00,,,-99.99,WeatherLink 5.9.3,2013-12-06 22:50:00,
2013-12-07 09:56:00,70.5,53.6,30.14,South,185,1.0,3.0,55,0.00,,,0.00,Wunderground v.1.15,2013-12-06 22:56:00,
2013-12-07 10:02:00,71.0,53.0,30.13,SE,136,1.0,4.0,53,0.00,,,0.00,Wunderground v.1.15,2013-12-06 23:02:00,
2013-12-07 10:07:00,72.1,53.0,30.13,ENE,59,2.0,4.0,51,0.00,,,0.00,Wunderground v.1.15,2013-12-06 23:07:00,
2013-12-07 10:13:00,72.3,54.2,30.13,ENE,78,3.0,5.0,53,0.00,,,0.00,Wunderground v.1.15,2013-12-06 23:13:00,
2013-12-07 10:18:00,72.3,54.7,30.14,WNW,290,3.0,5.0,54,0.00,,,0.00,Wunderground v.1.15,2013-12-06 23:18:00,
2013-12-07 10:24:00,73.3,54.6,30.14,SSW,207,2.0,3.0,52,0.00,,,0.00,Wunderground v.1.15,2013-12-06 23:24:00,
2013-12-07 10:29:00,73.4,54.7,30.13,SSW,211,2.0,3.0,52,0.00,,,0.00,Wunderground v.1.15,2013-12-06 23:29:00,
2013-12-07 10:34:00,72.6,52.9,30.14,SSW,210,2.0,2.0,50,0.00,,,0.00,Wunderground v.1.15,2013-12-06 23:34:00,
2013-12-07 10:40:00,73.1,53.4,30.14,SSW,202,2.0,5.0,50,0.00,,,-99.99,WeatherLink 5.9.3,2013-12-06 23:40:00,
2013-12-07 10:46:00,71.7,52.1,30.14,SSE,160,1.0,2.0,50,0.00,,,0.00,Wunderground v.1.15,2013-12-06 23:46:00,
2013-12-07 10:52:00,72.5,53.3,30.14,ESE,120,1.0,3.0,51,0.00,,,0.00,Wunderground v.1.15,2013-12-06 23:52:00,
2013-12-07 10:57:00,73.5,53.2,30.14,South,180,1.0,3.0,49,0.00,,,0.00,Wunderground v.1.15,2013-12-06 23:57:00,
2013-12-07 11:02:00,74.0,55.8,30.14,WNW,295,2.0,4.0,53,0.00,,,0.00,Wunderground v.1.15,2013-12-07 00:02:00,
2013-12-07 11:08:00,74.8,52.0,30.14,ENE,68,2.0,4.0,45,0.00,,,0.00,Wunderground v.1.15,2013-12-07 00:08:00,
2013-12-07 11:13:00,75.2,54.7,30.13,ESE,117,2.0,2.0,49,0.00,,,0.00,Wunderground v.1.15,2013-12-07 00:13:00,
2013-12-07 11:19:00,75.3,52.5,30.13,South,173,2.0,3.0,45,0.00,,,0.00,Wunderground v.1.15,2013-12-07 00:19:00,
2013-12-07 11:24:00,75.4,52.0,30.13,NNE,32,2.0,3.0,44,0.00,,,0.00,Wunderground v.1.15,2013-12-07 00:24:00,
2013-12-07 11:30:00,75.5,52.7,30.13,South,180,2.0,4.0,45,0.00,,,-99.99,WeatherLink 5.9.3,2013-12-07 00:30:00,
2013-12-07 11:36:00,75.5,52.7,30.13,South,181,1.0,2.0,45,0.00,,,0.00,Wunderground v.1.15,2013-12-07 00:36:00,
2013-12-07 11:41:00,75.8,51.7,30.13,SSE,150,1.0,3.0,43,0.00,,,0.00,Wunderground v.1.15,2013-12-07 00:41:00,
2013-12-07 11:46:00,76.0,53.7,30.13,West,269,1.0,3.0,46,0.00,,,0.00,Wunderground v.1.15,2013-12-07 00:46:00,
2013-12-07 11:51:00,75.9,51.2,30.13,East,93,2.0,2.0,42,0.00,,,0.00,Wunderground v.1.15,2013-12-07 00:51:00,
2013-12-07 11:57:00,75.6,51.5,30.12,South,190,1.0,2.0,43,0.00,,,0.00,Wunderground v.1.15,2013-12-07 00:57:00,
2013-12-07 12:02:00,76.4,54.1,30.11,West,264,1.0,1.0,46,0.00,,,0.00,Wunderground v.1.15,2013-12-07 01:02:00,
2013-12-07 12:08:00,76.5,51.0,30.11,WNW,288,1.0,2.0,41,0.00,,,0.00,Wunderground v.1.15,2013-12-07 01:08:00,
2013-12-07 12:13:00,76.6,51.8,30.11,SE,146,2.0,3.0,42,0.00,,,0.00,Wunderground v.1.15,2013-12-07 01:13:00,
2013-12-07 12:18:00,76.3,51.5,30.10,NE,55,2.0,4.0,42,0.00,,,0.00,Wunderground v.1.15,2013-12-07 01:18:00,
2013-12-07 12:24:00,76.5,51.7,30.10,WNW,293,2.0,2.0,42,0.00,,,0.00,Wunderground v.1.15,2013-12-07 01:24:00,
2013-12-07 12:29:00,77.4,55.0,30.10,NW,326,1.0,2.0,46,0.00,,,0.00,Wunderground v.1.15,2013-12-07 01:29:00,
2013-12-07 12:35:00,78.6,53.6,30.10,South,176,1.0,1.0,42,0.00,,,0.00,Wunderground v.1.15,2013-12-07 01:35:00,
2013-12-07 12:40:00,77.9,51.6,30.10,SSW,202,1.0,2.0,40,0.00,,,-99.99,WeatherLink 5.9.3,2013-12-07 01:40:00,
2013-12-07 12:46:00,79.2,54.8,30.10,WSW,240,2.0,4.0,43,0.00,,,0.00,Wunderground v.1.15,2013-12-07 01:46:00,
2013-12-07 12:52:00,79.2,53.5,30.10,WSW,252,2.0,3.0,41,0.00,,,0.00,Wunderground v.1.15,2013-12-07 01:52:00,
2013-12-07 12:57:00,79.0,52.6,30.09,South,179,1.0,3.0,40,0.00,,,0.00,Wunderground v.1.15,2013-12-07 01:57:00,
2013-12-07 13:03:00,79.4,55.0,30.09,WNW,290,1.0,2.0,43,0.00,,,0.00,Wunderground v.1.15,2013-12-07 02:03:00,
2013-12-07 13:08:00,79.7,51.8,30.09,NNE,17,1.0,3.0,38,0.00,,,0.00,Wunderground v.1.15,2013-12-07 02:08:00,
2013-12-07 13:13:00,79.9,52.0,30.09,NW,320,2.0,2.0,38,0.00,,,0.00,Wunderground v.1.15,2013-12-07 02:13:00,
2013-12-07 13:19:00,78.4,50.7,30.09,West,276,2.0,6.0,38,0.00,,,0.00,Wunderground v.1.15,2013-12-07 02:19:00,
2013-12-07 13:24:00,78.8,53.8,30.09,WNW,288,2.0,3.0,42,0.00,,,0.00,Wunderground v.1.15,2013-12-07 02:24:00,
2013-12-07 13:29:00,79.5,51.7,30.09,SSW,205,2.0,4.0,38,0.00,,,0.00,Wunderground v.1.15,2013-12-07 02:29:00,
2013-12-07 13:35:00,79.2,50.7,30.08,ENE,69,1.0,2.0,37,0.00,,,0.00,Wunderground v.1.15,2013-12-07 02:35:00,
2013-12-07 13:40:00,79.6,53.8,30.09,SSW,202,1.0,3.0,41,0.00,,,-99.99,WeatherLink 5.9.3,2013-12-07 02:40:00,
2013-12-07 13:46:00,79.0,53.3,30.08,North,11,1.0,2.0,41,0.00,,,0.00,Wunderground v.1.15,2013-12-07 02:46:00,
2013-12-07 13:51:00,79.7,52.5,30.07,ENE,72,1.0,2.0,39,0.00,,,0.00,Wunderground v.1.15,2013-12-07 02:51:00,
2013-12-07 13:56:00,78.8,51.0,30.07,NNE,24,2.0,4.0,38,0.00,,,0.00,Wunderground v.1.15,2013-12-07 02:56:00,
2013-12-07 14:02:00,78.8,53.1,30.07,ENE,68,2.0,2.0,41,0.00,,,0.00,Wunderground v.1.15,2013-12-07 03:02:00,
2013-12-07 14:07:00,79.1,54.7,30.06,NW,323,1.0,3.0,43,0.00,,,0.00,Wunderground v.1.15,2013-12-07 03:07:00,
2013-12-07 14:13:00,79.8,50.5,30.06,ENE,72,2.0,4.0,36,0.00,,,0.00,Wunderground v.1.15,2013-12-07 03:13:00,
2013-12-07 14:18:00,78.7,51.7,30.06,NW,305,2.0,4.0,39,0.00,,,0.00,Wunderground v.1.15,2013-12-07 03:18:00,
2013-12-07 14:23:00,78.7,51.0,30.06,West,274,2.0,3.0,38,0.00,,,0.00,Wunderground v.1.15,2013-12-07 03:23:00,
2013-12-07 14:29:00,79.0,51.9,30.06,NNW,328,1.0,3.0,39,0.00,,,0.00,Wunderground v.1.15,2013-12-07 03:29:00,
2013-12-07 14:34:00,79.4,53.0,30.06,NNW,330,1.0,3.0,40,0.00,,,0.00,Wunderground v.1.15,2013-12-07 03:34:00,
2013-12-07 14:39:00,80.5,54.0,30.05,NNW,333,1.0,3.0,40,0.00,,,0.00,Wunderground v.1.15,2013-12-07 03:39:00,
2013-12-07 14:45:00,81.4,52.6,30.05,WNW,285,1.0,3.0,37,0.00,,,0.00,Wunderground v.1.15,2013-12-07 03:45:00,
2013-12-07 14:50:00,81.0,56.4,30.05,NNE,22,1.0,3.0,43,0.00,,,-99.99,WeatherLink 5.9.3,2013-12-07 03:50:00,
2013-12-07 14:56:00,81.0,50.8,30.05,SE,138,2.0,4.0,35,0.00,,,0.00,Wunderground v.1.15,2013-12-07 03:56:00,
2013-12-07 15:01:00,80.4,51.7,30.05,ESE,110,1.0,1.0,37,0.00,,,0.00,Wunderground v.1.15,2013-12-07 04:01:00,
2013-12-07 15:06:00,80.8,51.4,30.05,West,264,1.0,1.0,36,0.00,,,0.00,Wunderground v.1.15,2013-12-07 04:06:00,
2013-12-07 15:12:00,81.3,52.5,30.05,NE,38,1.0,4.0,37,0.00,,,0.00,Wunderground v.1.15,2013-12-07 04:12:00,
2013-12-07 15:17:00,80.9,52.2,30.05,NNE,20,2.0,4.0,37,0.00,,,0.00,Wunderground v.1.15,2013-12-07 04:17:00,
2013-12-07 15:22:00,80.5,53.3,30.05,NE,34,2.0,2.0,39,0.00,,,0.00,Wunderground v.1.15,2013-12-07 04:22:00,
2013-12-07 15:28:00,79.9,51.3,30.04,NNE,25,2.0,3.0,37,0.00,,,0.00,Wunderground v.1.15,2013-12-07 04:28:00,
2013-12-07 15:33:00,80.2,53.0,30.05,WNW,285,2.0,3.0,39,0.00,,,0.00,Wunderground v.1.15,2013-12-07 04:33:00,
2013-12-07 15:38:00,80.7,52.0,30.05,NNW,338,2.0,3.0,37,0.00,,,0.00,Wunderground v.1.15,2013-12-07 04:38:00,
2013-12-07 15:44:00,81.2,51.7,30.05,NE,38,1.0,2.0,36,0.00,,,0.00,Wunderground v.1.15,2013-12-07 04:44:00,
2013-12-07 15:49:00,81.4,51.9,30.04,NE,37,2.0,3.0,36,0.00,,,0.00,Wunderground v.1.15,2013-12-07 04:49:00,
2013-12-07 15:55:00,81.6,52.1,30.04,NW,311,2.0,2.0,36,0.00,,,0.00,Wunderground v.1.15,2013-12-07 04:55:00,
2013-12-07 16:00:00,81.3,51.8,30.04,NE,45,2.0,4.0,36,0.00,,,-99.99,WeatherLink 5.9.3,2013-12-07 05:00:00,
2013-12-07 16:01:00,82.0,52.4,30.04,SSW,195,1.0,1.0,36,0.00,,,0.00,Wunderground v.1.15,2013-12-07 05:01:00,
2013-12-07 16:02:00,82.1,51.7,30.04,NE,47,1.0,3.0,35,0.00,,,0.00,Wunderground v.1.15,2013-12-07 05:02:00,
2013-12-07 16:05:00,81.9,52.3,30.04,NW,325,1.0,6.0,36,0.00,,,0.00,Wunderground v.1.15,2013-12-07 05:05:00,
2013-12-07 16:06:00,81.6,52.1,30.04,West,264,2.0,6.0,36,0.00,,,0.00,Wunderground v.1.15,2013-12-07 05:06:00,
2013-12-07 16:07:00,81.2,50.9,30.04,WNW,288,2.0,6.0,35,0.00,,,0.00,Wunderground v.1.15,2013-12-07 05:07:00,
2013-12-07 16:09:00,80.9,52.2,30.04,NW,305,2.0,6.0,37,0.00,,,0.00,Wunderground v.1.15,2013-12-07 05:09:00,
2013-12-07 16:14:00,80.3,50.9,30.03,NW,319,2.0,2.0,36,0.00,,,0.00,Wunderground v.1.15,2013-12-07 05:14:00,
2013-12-07 16:18:00,80.1,50.7,30.03,ENE,76,1.0,2.0,36,0.00,,,0.00,Wunderground v.1.15,2013-12-07 05:18:00,
2013-12-07 16:23:00,79.9,51.3,30.03,SSW,195,0.0,2.0,37,0.00,,,0.00,Wunderground v.1.15,2013-12-07 05:23:00,
2013-12-07 16:29:00,79.9,51.3,30.03,WNW,282,0.0,2.0,37,0.00,,,0.00,Wunderground v.1.15,2013-12-07 05:29:00,
2013-12-07 16:34:00,79.9,49.8,30.03,SSE,157,0.0,2.0,35,0.00,,,0.00,Wunderground v.1.15,2013-12-07 05:34:00,
2013-12-07 16:39:00,79.8,49.7,30.03,SSW,196,1.0,2.0,35,0.00,,,0.00,Wunderground v.1.15,2013-12-07 05:39:00,
2013-12-07 16:45:00,80.4,51.0,30.03,SW,221,0.0,3.0,36,0.00,,,0.00,Wunderground v.1.15,2013-12-07 05:45:00,
2013-12-07 16:50:00,79.9,50.6,30.03,SSW,202,0.0,2.0,36,0.00,,,-99.99,WeatherLink 5.9.3,2013-12-07 05:50:00,
2013-12-07 16:56:00,79.6,55.1,30.03,NNE,30,3.0,6.0,43,0.00,,,0.00,Wunderground v.1.15,2013-12-07 05:56:00,
2013-12-07 17:01:00,78.9,54.5,30.03,NNE,31,4.0,5.0,43,0.00,,,0.00,Wunderground v.1.15,2013-12-07 06:01:00,
2013-12-07 17:06:00,78.7,54.3,30.03,ENE,77,5.0,5.0,43,0.00,,,0.00,Wunderground v.1.15,2013-12-07 06:06:00,
2013-12-07 17:12:00,78.0,53.7,30.03,ENE,73,4.0,4.0,43,0.00,,,0.00,Wunderground v.1.15,2013-12-07 06:12:00,
2013-12-07 17:17:00,77.8,54.1,30.03,ESE,105,3.0,4.0,44,0.00,,,0.00,Wunderground v.1.15,2013-12-07 06:17:00,
2013-12-07 17:30:00,77.6,54.6,30.03,ENE,67,4.0,10.0,45,0.00,,,-99.99,WeatherLink 5.9.3,2013-12-07 06:30:00,
2013-12-07 17:36:00,77.0,54.0,30.03,SE,136,6.0,10.0,45,0.00,,,0.00,Wunderground v.1.15,2013-12-07 06:36:00,
2013-12-07 17:41:00,76.8,53.8,30.03,SE,125,5.0,5.0,45,0.00,,,0.00,Wunderground v.1.15,2013-12-07 06:41:00,
2013-12-07 17:47:00,76.7,53.8,30.03,SSE,150,4.0,5.0,45,0.00,,,0.00,Wunderground v.1.15,2013-12-07 06:47:00,
2013-12-07 17:52:00,76.3,53.4,30.03,NE,39,4.0,8.0,45,0.00,,,0.00,Wunderground v.1.15,2013-12-07 06:52:00,
2013-12-07 17:57:00,76.1,53.8,30.03,NE,51,5.0,8.0,46,0.00,,,0.00,Wunderground v.1.15,2013-12-07 06:57:00,
2013-12-07 18:03:00,75.6,53.4,30.04,NNE,24,4.0,5.0,46,0.00,,,0.00,Wunderground v.1.15,2013-12-07 07:03:00,
2013-12-07 18:08:00,75.3,53.7,30.04,ENE,65,4.0,5.0,47,0.00,,,0.00,Wunderground v.1.15,2013-12-07 07:08:00,
2013-12-07 18:14:00,75.0,53.4,30.04,NE,44,5.0,8.0,47,0.00,,,0.00,Wunderground v.1.15,2013-12-07 07:14:00,
2013-12-07 18:19:00,74.8,53.2,30.04,NE,48,4.0,8.0,47,0.00,,,0.00,Wunderground v.1.15,2013-12-07 07:19:00,
2013-12-07 18:25:00,74.1,53.2,30.04,NE,38,4.0,5.0,48,0.00,,,0.00,Wunderground v.1.15,2013-12-07 07:25:00,
2013-12-07 18:30:00,74.5,53.5,30.04,NE,45,4.0,7.0,48,0.00,,,-99.99,WeatherLink 5.9.3,2013-12-07 07:30:00,
2013-12-07 18:36:00,72.8,52.5,30.05,NE,52,4.0,4.0,49,0.00,,,0.00,Wunderground v.1.15,2013-12-07 07:36:00,
2013-12-07 18:42:00,72.2,52.5,30.05,ENE,59,4.0,5.0,50,0.00,,,0.00,Wunderground v.1.15,2013-12-07 07:42:00,
2013-12-07 18:47:00,71.7,52.6,30.05,East,86,3.0,6.0,51,0.00,,,0.00,Wunderground v.1.15,2013-12-07 07:47:00,
2013-12-07 18:53:00,71.2,52.7,30.05,NE,41,3.0,3.0,52,0.00,,,0.00,Wunderground v.1.15,2013-12-07 07:53:00,
2013-12-07 18:58:00,71.1,52.6,30.05,ENE,58,4.0,7.0,52,0.00,,,0.00,Wunderground v.1.15,2013-12-07 07:58:00,
2013-12-07 19:03:00,71.0,53.0,30.05,ENE,71,3.0,4.0,53,0.00,,,0.00,Wunderground v.1.15,2013-12-07 08:03:00,
2013-12-07 19:09:00,70.7,52.7,30.06,NE,56,3.0,5.0,53,0.00,,,0.00,Wunderground v.1.15,2013-12-07 08:09:00,
2013-12-07 19:14:00,70.4,52.4,30.06,ENE,58,3.0,5.0,53,0.00,,,0.00,Wunderground v.1.15,2013-12-07 08:14:00,
2013-12-07 19:20:00,70.6,52.6,30.06,ENE,67,3.0,8.0,53,0.00,,,-99.99,WeatherLink 5.9.3,2013-12-07 08:20:00,
2013-12-07 19:26:00,69.8,52.4,30.06,North,4,3.0,4.0,54,0.00,,,0.00,Wunderground v.1.15,2013-12-07 08:26:00,
2013-12-07 19:32:00,69.5,51.6,30.07,NE,52,2.0,2.0,53,0.00,,,0.00,Wunderground v.1.15,2013-12-07 08:32:00,
2013-12-07 19:37:00,69.2,51.8,30.07,ENE,60,2.0,3.0,54,0.00,,,0.00,Wunderground v.1.15,2013-12-07 08:37:00,
2013-12-07 19:43:00,68.9,51.6,30.07,NE,55,2.0,2.0,54,0.00,,,0.00,Wunderground v.1.15,2013-12-07 08:43:00,
2013-12-07 19:48:00,68.6,51.3,30.07,East,96,2.0,2.0,54,0.00,,,0.00,Wunderground v.1.15,2013-12-07 08:48:00,
2013-12-07 19:53:00,68.4,51.6,30.07,East,99,1.0,2.0,55,0.00,,,0.00,Wunderground v.1.15,2013-12-07 08:53:00,
2013-12-07 19:59:00,68.0,51.7,30.07,ESE,118,1.0,3.0,56,0.00,,,0.00,Wunderground v.1.15,2013-12-07 08:59:00,
2013-12-07 20:04:00,67.8,51.5,30.08,ENE,68,1.0,1.0,56,0.00,,,0.00,Wunderground v.1.15,2013-12-07 09:04:00,
2013-12-07 20:10:00,67.9,51.6,30.08,ENE,67,1.0,2.0,56,0.00,,,-99.99,WeatherLink 5.9.3,2013-12-07 09:10:00,
2013-12-07 20:16:00,67.1,51.8,30.08,ENE,77,0.0,0.0,58,0.00,,,0.00,Wunderground v.1.15,2013-12-07 09:16:00,
2013-12-07 20:22:00,66.7,51.5,30.08,ENE,78,0.0,0.0,58,0.00,,,0.00,Wunderground v.1.15,2013-12-07 09:22:00,
2013-12-07 21:20:00,66.8,51.5,30.08,ENE,67,0.0,1.0,58,0.00,,,-99.99,WeatherLink 5.9.3,2013-12-07 10:20:00,
2013-12-07 21:25:00,66.5,51.7,30.08,NE,45,0.0,1.0,59,0.00,,,-99.99,WeatherLink 5.9.3,2013-12-07 10:25:00,
2013-12-07 21:30:00,66.2,51.4,30.08,NE,45,0.0,1.0,59,0.00,,,-99.99,WeatherLink 5.9.3,2013-12-07 10:30:00,
2013-12-07 21:35:00,65.7,51.9,30.08,East,90,0.0,1.0,61,0.00,,,-99.99,WeatherLink 5.9.3,2013-12-07 10:35:00,
2013-12-07 21:40:00,65.4,51.6,30.08,SSW,202,0.0,1.0,61,0.00,,,-99.99,WeatherLink 5.9.3,2013-12-07 10:40:00,
2013-12-07 21:45:00,65.4,52.0,30.09,SW,225,0.0,1.0,62,0.00,,,-99.99,WeatherLink 5.9.3,2013-12-07 10:45:00,
2013-12-07 21:50:00,65.3,51.9,30.09,SSW,202,0.0,1.0,62,0.00,,,-99.99,WeatherLink 5.9.3,2013-12-07 10:50:00,
2013-12-07 21:51:00,61.0,51.9,30.10,WNW,293,0.0,0.0,72,0.00,,,0.00,Wunderground v.1.15,2013-12-07 10:51:00,
2013-12-07 21:56:00,60.7,51.6,30.11,WNW,293,0.0,0.0,72,0.00,,,0.00,Wunderground v.1.15,2013-12-07 10:56:00,
2013-12-07 22:01:00,60.2,51.5,30.11,WNW,293,0.0,0.0,73,0.00,,,0.00,Wunderground v.1.15,2013-12-07 11:01:00,
2013-12-07 22:06:00,59.9,51.6,30.11,WNW,293,0.0,0.0,74,0.00,,,0.00,Wunderground v.1.15,2013-12-07 11:06:00,
2013-12-07 22:12:00,59.4,51.5,30.10,WNW,293,0.0,0.0,75,0.00,,,0.00,Wunderground v.1.15,2013-12-07 11:12:00,
2013-12-07 22:17:00,59.1,51.5,30.11,WNW,293,0.0,0.0,76,0.00,,,0.00,Wunderground v.1.15,2013-12-07 11:17:00,
2013-12-07 22:22:00,58.9,51.7,30.11,WNW,293,0.0,0.0,77,0.00,,,0.00,Wunderground v.1.15,2013-12-07 11:22:00,
2013-12-07 22:27:00,58.7,51.9,30.10,WNW,293,0.0,0.0,78,0.00,,,0.00,Wunderground v.1.15,2013-12-07 11:27:00,
2013-12-07 22:32:00,58.6,51.8,30.11,SW,223,0.0,0.0,78,0.00,,,0.00,Wunderground v.1.15,2013-12-07 11:32:00,
2013-12-07 22:38:00,58.4,51.6,30.10,SW,236,0.0,0.0,78,0.00,,,0.00,Wunderground v.1.15,2013-12-07 11:38:00,
2013-12-07 22:43:00,58.2,51.4,30.10,SW,234,0.0,0.0,78,0.00,,,0.00,Wunderground v.1.15,2013-12-07 11:43:00,
2013-12-07 22:48:00,58.1,51.6,30.11,SW,236,0.0,0.0,79,0.00,,,0.00,Wunderground v.1.15,2013-12-07 11:48:00,
2013-12-07 23:13:00,57.4,51.6,30.11,SW,236,0.0,0.0,81,0.00,,,0.00,Wunderground v.1.15,2013-12-07 12:13:00,
2013-12-07 23:19:00,57.3,51.5,30.10,SW,236,0.0,0.0,81,0.00,,,0.00,Wunderground v.1.15,2013-12-07 12:19:00,
2013-12-07 23:24:00,57.2,51.4,30.10,SW,236,0.0,0.0,81,0.00,,,0.00,Wunderground v.1.15,2013-12-07 12:24:00,
2013-12-07 23:29:00,56.9,51.1,30.10,SW,236,0.0,0.0,81,0.00,,,0.00,Wunderground v.1.15,2013-12-07 12:29:00,
2013-12-07 23:35:00,56.8,51.4,30.10,SW,236,0.0,0.0,82,0.00,,,0.00,Wunderground v.1.15,2013-12-07 12:35:00,
2013-12-07 23:40:00,56.8,51.0,30.10,North,-999,0.0,0.0,81,0.00,,,-99.99,WeatherLink 5.9.3,2013-12-07 12:40:00,
2013-12-07 23:46:00,56.7,51.3,30.10,WSW,256,0.0,0.0,82,0.00,,,0.00,Wunderground v.1.15,2013-12-07 12:46:00,
2013-12-07 23:51:00,56.5,51.1,30.10,WSW,256,0.0,0.0,82,0.00,,,0.00,Wunderground v.1.15,2013-12-07 12:51:00,
2013-12-07 23:56:00,56.3,51.2,30.10,WSW,256,0.0,0.0,83,0.00,,,0.00,Wunderground v.1.15,2013-12-07 12:56:00,